Terminal Aerodrome Forecast
Issued by NWS Dallas/Fort Worth, TX

Home | Current Version | Previous Version | Text Only | Print | Product List | Glossary On
Versions: 1 2 3 4 5 6 7 8 9 10 11 12 13 14 15 16 17 18 19 20 21 22 23 24 25 26 27 28 29 30
000
FTUS44 KFWD 042105 AAA
TAFACT
TAF AMD
KACT 042105Z 0421/0518 15015KT P6SM SCT040 BKN130
     FM050100 16014KT P6SM BKN100
     FM050800 15009KT P6SM OVC015
      TEMPO 0511/0514 5SM BR OVC007
     FM051700 15015KT P6SM BKN015=

USA.gov is the U.S. government's official web portal to all federal, state and local government web resources and services.